createdAt,value
2016-06-14T00:00:55.537Z,14.82
2016-06-14T00:01:39.651Z,14.78
2016-06-14T00:02:59.562Z,14.67
2016-06-14T00:03:12.359Z,14.79
2016-06-14T00:05:11.630Z,14.77
2016-06-14T00:05:27.802Z,14.78
2016-06-14T00:06:27.634Z,14.71
2016-06-14T00:07:46.887Z,14.81
2016-06-14T00:08:37.125Z,14.81
2016-06-14T00:09:56.553Z,14.81
2016-06-14T00:10:50.100Z,14.85
2016-06-14T00:12:05.357Z,14.78
2016-06-14T00:13:05.359Z,14.79
2016-06-14T00:14:05.565Z,14.7
2016-06-14T00:15:05.537Z,14.7
2016-06-14T00:16:05.571Z,14.79
2016-06-14T00:17:05.481Z,14.79
2016-06-14T00:18:18.078Z,14.81
2016-06-14T00:19:31.174Z,14.7
2016-06-14T00:20:31.193Z,14.77
2016-06-14T00:22:33.527Z,14.81
2016-06-14T00:25:30.333Z,14.79
2016-06-14T00:26:49.539Z,14.79
2016-06-14T00:27:46.230Z,14.73
2016-06-14T00:28:33.623Z,14.79
2016-06-14T00:29:52.596Z,14.89
2016-06-14T00:31:02.476Z,14.79
2016-06-14T00:31:56.023Z,14.73
2016-06-14T00:33:55.233Z,14.81
2016-06-14T00:34:55.235Z,14.86
2016-06-14T00:35:55.395Z,14.82
2016-06-14T00:37:08.026Z,14.78
2016-06-14T00:38:08.201Z,14.78
2016-06-14T00:39:14.532Z,14.71
2016-06-14T00:40:21.021Z,14.77
2016-06-14T00:40:55.364Z,14.79
2016-06-14T00:42:21.151Z,14.74
2016-06-14T00:43:05.123Z,14.82
2016-06-14T00:44:05.205Z,14.7
2016-06-14T00:45:18.425Z,14.79
2016-06-14T00:46:05.195Z,14.78
2016-06-14T00:47:24.384Z,14.82
2016-06-14T00:48:17.951Z,14.79
2016-06-14T00:49:05.251Z,14.81
2016-06-14T00:50:24.488Z,14.78
2016-06-14T00:51:18.069Z,14.74
2016-06-14T00:52:36.588Z,14.63
2016-06-14T00:53:31.013Z,14.7
2016-06-14T00:54:05.189Z,14.66
2016-06-14T00:55:36.800Z,14.66
2016-06-14T00:56:08.273Z,14.74
2016-06-14T00:57:05.432Z,14.66
2016-06-14T00:58:05.434Z,14.68
2016-06-14T00:59:08.501Z,14.61
2016-06-14T01:00:06.972Z,14.58
2016-06-14T01:01:05.507Z,14.56
2016-06-14T01:02:18.322Z,14.67
2016-06-14T01:03:18.278Z,14.63
2016-06-14T01:04:24.781Z,14.58
2016-06-14T01:05:05.582Z,14.63
2016-06-14T01:06:05.600Z,14.45
2016-06-14T01:07:18.354Z,14.53
2016-06-14T01:08:05.653Z,14.61
2016-06-14T01:09:31.327Z,14.49
2016-06-14T01:10:05.706Z,14.59
2016-06-14T01:11:05.725Z,14.44
2016-06-14T01:12:05.727Z,14.41
2016-06-14T01:13:37.028Z,14.51
2016-06-14T01:14:15.437Z,14.51
2016-06-14T01:16:18.020Z,14.51
2016-06-14T01:16:30.739Z,14.53
2016-06-14T01:17:30.727Z,14.49
2016-06-14T01:18:30.872Z,14.48
2016-06-14T01:19:49.983Z,14.52
2016-06-14T01:20:30.861Z,14.51
2016-06-14T01:21:56.599Z,14.63
2016-06-14T01:22:50.056Z,14.63
2016-06-14T01:23:33.886Z,14.59
2016-06-14T01:24:53.092Z,14.61
2016-06-14T01:25:33.924Z,14.71
2016-06-14T01:26:33.927Z,14.77
2016-06-14T01:27:33.946Z,14.78
2016-06-14T01:28:35.418Z,14.7
2016-06-14T01:29:34.483Z,14.81
2016-06-14T01:30:34.205Z,14.85
2016-06-14T01:31:34.052Z,14.9
2016-06-14T01:32:34.055Z,14.89
2016-06-14T01:33:34.120Z,14.92
2016-06-14T01:34:53.295Z,14.97
2016-06-14T01:35:41.798Z,14.99
2016-06-14T01:37:49.382Z,15.02
2016-06-14T01:38:49.401Z,15.07
2016-06-14T01:39:49.514Z,15.12
2016-06-14T01:40:49.455Z,15.12
2016-06-14T01:41:49.457Z,15.17
2016-06-14T01:43:02.229Z,15.23
2016-06-14T01:44:08.732Z,15.19
2016-06-14T01:44:53.357Z,15.22
2016-06-14T01:45:52.938Z,15.15
2016-06-14T01:46:52.941Z,15.12
2016-06-14T01:47:52.945Z,15.1
2016-06-14T01:48:52.963Z,15.05
2016-06-14T01:49:53.029Z,15
2016-06-14T01:51:12.223Z,15.04
2016-06-14T01:51:53.114Z,15.04
2016-06-14T01:54:02.669Z,15.1
2016-06-14T01:55:21.907Z,15.14
2016-06-14T01:56:05.926Z,15.19
2016-06-14T01:57:05.882Z,15.17
2016-06-14T01:58:05.916Z,15.18
2016-06-14T01:59:05.935Z,15.17
2016-06-14T02:00:18.688Z,15.11
2016-06-14T02:01:07.378Z,15.19
2016-06-14T02:02:05.990Z,15.27
2016-06-14T02:03:05.993Z,15.26
2016-06-14T02:04:06.029Z,15.19
2016-06-14T02:05:25.093Z,15.18
2016-06-14T02:06:18.832Z,15.29
2016-06-14T02:08:06.119Z,15.27
2016-06-14T02:09:06.137Z,15.37
2016-06-14T02:10:06.203Z,15.27
2016-06-14T02:11:06.159Z,15.37
2016-06-14T02:12:07.600Z,15.5
2016-06-14T02:13:06.228Z,15.48
2016-06-14T02:14:06.075Z,15.37
2016-06-14T02:15:06.124Z,15.43
2016-06-14T02:16:06.283Z,15.36
2016-06-14T02:17:06.318Z,15.36
2016-06-14T02:18:25.509Z,15.35
2016-06-14T02:19:09.386Z,15.41
2016-06-14T02:20:06.374Z,15.36
2016-06-14T02:21:06.393Z,15.37
2016-06-14T02:22:19.130Z,15.39
2016-06-14T02:23:06.430Z,15.36
2016-06-14T02:24:32.137Z,15.44
2016-06-14T02:25:16.108Z,15.43
2016-06-14T02:26:16.111Z,15.44
2016-06-14T02:27:28.864Z,15.48
2016-06-14T02:28:28.883Z,15.43
2016-06-14T02:29:18.339Z,15.51
2016-06-14T02:30:41.873Z,15.43
2016-06-14T02:31:25.533Z,15.45
2016-06-14T02:32:25.692Z,15.52
2016-06-14T02:33:25.695Z,15.48
2016-06-14T02:34:25.730Z,15.51
2016-06-14T02:35:28.811Z,15.51
2016-06-14T02:36:25.766Z,15.57
2016-06-14T02:37:39.958Z,15.55
2016-06-14T02:38:25.836Z,15.55
2016-06-14T02:39:25.870Z,15.59
2016-06-14T02:40:28.873Z,15.6
2016-06-14T02:41:26.017Z,15.65
2016-06-14T02:42:25.943Z,15.66
2016-06-14T02:43:25.929Z,15.52
2016-06-14T02:44:25.808Z,15.63
2016-06-14T02:45:26.295Z,15.54
2016-06-14T02:46:40.016Z,15.52
2016-06-14T02:47:40.176Z,15.52
2016-06-14T02:48:26.054Z,15.59
2016-06-14T02:49:51.745Z,15.65
2016-06-14T02:50:27.498Z,15.7
2016-06-14T02:51:26.095Z,15.66
2016-06-14T02:52:26.176Z,15.67
2016-06-14T02:53:38.897Z,15.7
2016-06-14T02:54:26.010Z,15.75
2016-06-14T02:55:51.810Z,15.69
2016-06-14T02:56:26.064Z,15.73
2016-06-14T02:57:26.222Z,15.78
2016-06-14T02:58:26.256Z,15.73
2016-06-14T02:59:57.635Z,15.78
2016-06-14T03:00:46.106Z,15.8
2016-06-14T03:01:25.985Z,15.75
2016-06-14T03:02:26.066Z,15.69
2016-06-14T03:03:26.350Z,15.8
2016-06-14T03:04:26.385Z,15.75
2016-06-14T03:05:27.872Z,15.84
2016-06-14T03:06:39.141Z,15.7
2016-06-14T03:07:26.426Z,15.7
2016-06-14T03:08:45.662Z,15.83
2016-06-14T03:09:39.431Z,15.8
2016-06-14T03:10:52.199Z,15.8
2016-06-14T03:11:26.531Z,15.8
2016-06-14T03:12:57.831Z,15.88
2016-06-14T03:13:36.350Z,15.88
2016-06-14T03:14:36.711Z,15.75
2016-06-14T03:15:38.543Z,15.78
2016-06-14T03:16:37.734Z,15.76
2016-06-14T03:17:48.987Z,15.9
2016-06-14T03:18:36.381Z,15.75
2016-06-14T03:19:36.399Z,15.85
2016-06-14T03:20:37.762Z,15.88
2016-06-14T03:21:36.405Z,15.88
2016-06-14T03:22:55.565Z,15.87
2016-06-14T03:23:49.146Z,15.87
2016-06-14T03:26:33.420Z,15.88
2016-06-14T03:26:46.170Z,15.99
2016-06-14T03:27:58.940Z,15.92
2016-06-14T03:28:46.224Z,15.99
2016-06-14T03:29:47.336Z,15.96
2016-06-14T03:30:47.699Z,15.96
2016-06-14T03:31:49.467Z,15.94
2016-06-14T03:32:52.721Z,16.05
2016-06-14T03:33:59.083Z,15.92
2016-06-14T03:35:05.558Z,16
2016-06-14T03:36:15.201Z,16.06
2016-06-14T03:36:59.170Z,15.99
2016-06-14T03:37:59.173Z,16.06
2016-06-14T03:39:18.430Z,16.03
2016-06-14T03:40:08.667Z,16.02
2016-06-14T03:41:28.076Z,15.99
2016-06-14T03:42:21.626Z,15.96
2016-06-14T03:43:33.723Z,15.91
2016-06-14T03:44:23.195Z,16.03
2016-06-14T03:45:02.367Z,16
2016-06-14T03:47:17.907Z,15.96
2016-06-14T03:48:17.895Z,15.96
2016-06-14T03:49:30.648Z,16
2016-06-14T03:50:20.979Z,15.96
2016-06-14T03:51:17.966Z,16.06
2016-06-14T03:52:37.188Z,16.03
2016-06-14T03:53:21.160Z,16.12
2016-06-14T03:56:02.104Z,16.18
2016-06-14T03:57:02.106Z,16.17
2016-06-14T03:58:05.191Z,16.13
2016-06-14T03:59:14.897Z,16.24
2016-06-14T04:00:02.788Z,16.21
2016-06-14T04:01:33.497Z,16.22
2016-06-14T04:02:14.875Z,16.26
2016-06-14T04:03:40.550Z,16.31
2016-06-14T04:04:50.179Z,16.22
2016-06-14T04:05:43.728Z,16.24
2016-06-14T04:06:24.559Z,16.31
2016-06-14T04:08:27.144Z,16.32
2016-06-14T04:09:05.350Z,16.26
2016-06-14T04:09:39.710Z,16.36
2016-06-14T04:11:42.278Z,16.31
2016-06-14T04:11:54.950Z,16.29
2016-06-14T04:12:54.984Z,16.32
2016-06-14T04:13:58.018Z,16.31
2016-06-14T04:14:58.037Z,16.36
2016-06-14T04:16:07.731Z,16.34
2016-06-14T04:16:55.059Z,16.26
2016-06-14T04:18:14.143Z,16.24
2016-06-14T04:18:58.127Z,16.31
2016-06-14T04:20:17.322Z,16.28
2016-06-14T04:20:58.165Z,16.28
2016-06-14T04:21:59.761Z,16.28
2016-06-14T04:23:10.939Z,16.29
2016-06-14T04:24:10.959Z,16.32
2016-06-14T04:25:17.446Z,16.4
2016-06-14T04:26:23.933Z,16.46
2016-06-14T04:26:58.121Z,16.43
2016-06-14T04:27:58.311Z,16.51
2016-06-14T04:28:59.737Z,16.5
2016-06-14T04:30:11.445Z,16.54
2016-06-14T04:31:11.731Z,16.55
2016-06-14T04:32:29.874Z,16.5
2016-06-14T04:32:58.468Z,16.5
2016-06-14T04:33:58.439Z,16.47
2016-06-14T04:35:17.680Z,16.61
2016-06-14T04:36:14.401Z,16.58
2016-06-14T04:37:20.513Z,16.54
2016-06-14T04:38:15.877Z,16.49
2016-06-14T04:39:27.192Z,16.59
2016-06-14T04:40:27.226Z,16.54
2016-06-14T04:42:30.498Z,16.68
2016-06-14T04:43:24.267Z,16.74
2016-06-14T04:44:24.254Z,16.73
2016-06-14T04:45:37.538Z,16.8
2016-06-14T04:46:24.307Z,16.87
2016-06-14T04:47:50.108Z,16.86
2016-06-14T04:48:25.830Z,16.94
2016-06-14T04:50:42.851Z,16.97
2016-06-14T04:51:42.870Z,17.01
2016-06-14T04:52:55.623Z,16.94
2016-06-14T04:53:42.845Z,16.97
2016-06-14T04:55:08.413Z,16.91
2016-06-14T04:55:52.366Z,16.95
2016-06-14T04:56:52.369Z,16.87
2016-06-14T04:57:52.404Z,16.83
2016-06-14T04:58:52.422Z,16.89
2016-06-14T04:59:52.472Z,16.87
2016-06-14T05:00:53.147Z,16.87
2016-06-14T05:01:52.541Z,16.89
2016-06-14T05:03:05.279Z,16.87
2016-06-14T05:04:05.282Z,16.91
2016-06-14T05:05:11.772Z,16.84
2016-06-14T05:06:23.869Z,16.84
2016-06-14T05:07:14.966Z,16.82
2016-06-14T05:08:33.531Z,16.82
2016-06-14T05:09:05.453Z,16.83
2016-06-14T05:11:11.744Z,16.83
2016-06-14T05:12:07.041Z,16.87
2016-06-14T05:13:07.154Z,16.87
2016-06-14T05:14:05.532Z,16.84
2016-06-14T05:15:05.566Z,16.87
2016-06-14T05:16:06.194Z,16.89
2016-06-14T05:17:05.619Z,16.83
2016-06-14T05:18:05.622Z,16.83
2016-06-14T05:19:05.640Z,16.84
2016-06-14T05:20:19.912Z,16.83
2016-06-14T05:21:18.431Z,16.79
2016-06-14T05:24:34.566Z,16.74
2016-06-14T05:25:34.397Z,16.82
2016-06-14T05:26:47.322Z,16.84
2016-06-14T05:27:34.636Z,16.89
2016-06-14T05:28:34.484Z,16.98
2016-06-14T05:29:47.206Z,17.02
2016-06-14T05:30:47.974Z,17.05
2016-06-14T05:32:31.668Z,17.05
2016-06-14T05:32:56.918Z,17.1
2016-06-14T05:33:57.077Z,17.12
2016-06-14T05:34:44.486Z,17.1
2016-06-14T05:36:10.177Z,17.2
2016-06-14T05:36:54.165Z,17.22
2016-06-14T05:38:19.890Z,17.37
2016-06-14T05:39:03.937Z,17.28
2016-06-14T05:40:03.923Z,17.31
2016-06-14T05:41:23.102Z,17.37
2016-06-14T05:42:03.899Z,17.41
2016-06-14T05:43:29.702Z,17.35
2016-06-14T05:44:23.173Z,17.44
2016-06-14T05:46:35.148Z,17.41
2016-06-14T05:47:05.429Z,17.31
2016-06-14T05:48:04.026Z,17.35
2016-06-14T05:49:04.045Z,17.34
2016-06-14T05:50:16.957Z,17.34
2016-06-14T05:51:05.363Z,17.37
2016-06-14T05:52:07.180Z,17.44
2016-06-14T05:53:04.152Z,17.39
2016-06-14T05:54:04.264Z,17.42
2016-06-14T05:55:04.203Z,17.56
2016-06-14T05:56:04.176Z,17.56
2016-06-14T05:57:07.445Z,17.56
2016-06-14T05:58:04.432Z,17.56
2016-06-14T05:59:17.063Z,17.75
2016-06-14T06:00:17.066Z,17.84
2016-06-14T06:01:04.832Z,17.79
2016-06-14T06:02:04.350Z,17.86
2016-06-14T06:03:35.701Z,17.79
2016-06-14T06:04:17.173Z,17.76
2016-06-14T06:05:04.454Z,17.76
2016-06-14T06:08:20.451Z,17.54
2016-06-14T06:09:17.266Z,17.56
2016-06-14T06:10:30.003Z,17.59
2016-06-14T06:11:14.253Z,17.56
2016-06-14T06:12:39.791Z,17.66
2016-06-14T06:13:49.434Z,17.66
2016-06-14T06:14:23.797Z,17.8
2016-06-14T06:16:39.210Z,17.97
2016-06-14T06:17:39.212Z,18.06
2016-06-14T06:18:39.232Z,18.11
2016-06-14T06:19:39.421Z,18.26
2016-06-14T06:20:42.299Z,18.31
2016-06-14T06:21:52.100Z,18.51
2016-06-14T06:22:42.353Z,18.58
2016-06-14T06:23:39.340Z,18.7
2016-06-14T06:24:52.109Z,18.96
2016-06-14T06:25:39.424Z,18.89
2016-06-14T06:26:58.631Z,19.09
2016-06-14T06:27:42.384Z,19.12
2016-06-14T06:28:58.825Z,19.27
2016-06-14T06:29:45.749Z,19.35
2016-06-14T06:31:10.831Z,19.53
2016-06-14T06:31:49.225Z,19.7
2016-06-14T06:32:49.290Z,19.77
2016-06-14T06:34:02.043Z,19.94
2016-06-14T06:35:01.921Z,20.04
2016-06-14T06:36:02.096Z,20.1
2016-06-14T06:37:08.568Z,20.14
2016-06-14T06:38:18.352Z,20.04
2016-06-14T06:39:18.402Z,20.08
2016-06-14T06:40:18.233Z,20.22
2016-06-14T06:41:18.424Z,20.34
2016-06-14T06:42:21.493Z,20.42
2016-06-14T06:43:18.462Z,20.55
2016-06-14T06:44:37.545Z,20.8
2016-06-14T06:45:31.574Z,21
2016-06-14T06:47:18.664Z,21.6
2016-06-14T06:48:18.706Z,22.1
2016-06-14T06:49:31.525Z,22.86
2016-06-14T06:50:20.270Z,23.88
2016-06-14T06:51:38.098Z,25.61
2016-06-14T06:52:28.382Z,26.74
2016-06-14T06:53:44.633Z,28.08
2016-06-14T06:54:38.025Z,28.93
2016-06-14T06:55:50.350Z,29.89
2016-06-14T06:56:31.827Z,30.59
2016-06-14T06:57:19.124Z,30.77
2016-06-14T06:59:28.788Z,29.47
2016-06-14T07:00:28.825Z,28.64
2016-06-14T07:01:32.268Z,27.58
2016-06-14T07:02:41.476Z,26.63
2016-06-14T07:03:31.949Z,26.1
2016-06-14T07:04:48.158Z,25.56
2016-06-14T07:05:48.177Z,25.16
2016-06-14T07:07:00.290Z,25.04
2016-06-14T07:07:29.044Z,25
2016-06-14T07:08:29.079Z,24.79
2016-06-14T07:09:36.784Z,24.61
2016-06-14T07:10:48.335Z,24.25
2016-06-14T07:11:29.152Z,24.04
2016-06-14T07:12:29.202Z,23.7
2016-06-14T07:13:29.205Z,23.51
2016-06-14T07:15:01.365Z,22.99
2016-06-14T07:15:39.727Z,22.77
2016-06-14T07:17:05.574Z,22.43
2016-06-14T07:17:56.811Z,22.07
2016-06-14T07:18:44.096Z,21.66
2016-06-14T07:20:09.818Z,21.25
2016-06-14T07:20:43.977Z,20.88
2016-06-14T07:22:15.465Z,20.49
2016-06-14T07:22:45.546Z,20.26
2016-06-14T07:25:00.115Z,19.85
2016-06-14T07:25:53.868Z,19.7
2016-06-14T07:26:53.667Z,19.62
2016-06-14T07:27:53.967Z,19.55
2016-06-14T07:28:53.955Z,19.59
2016-06-14T07:30:06.708Z,19.56
2016-06-14T07:30:54.258Z,19.59
2016-06-14T07:32:19.901Z,19.64
2016-06-14T07:33:03.874Z,19.67
2016-06-14T07:34:23.098Z,19.81
2016-06-14T07:35:16.738Z,19.84
2016-06-14T07:36:03.945Z,20.02
2016-06-14T07:37:23.810Z,20.26
2016-06-14T07:38:07.029Z,20.36
2016-06-14T07:39:04.047Z,20.59
2016-06-14T07:40:23.242Z,20.93
2016-06-14T07:41:35.526Z,21.03
2016-06-14T07:42:04.245Z,21.14
2016-06-14T07:43:04.216Z,21.32
2016-06-14T07:44:17.110Z,21.63
2016-06-14T07:45:05.691Z,21.77
2016-06-14T07:46:04.351Z,21.88
2016-06-14T07:47:07.353Z,22.06
2016-06-14T07:48:17.138Z,22.7
2016-06-14T07:49:23.520Z,23.16
2016-06-14T07:50:04.410Z,23.52
2016-06-14T07:51:35.635Z,24.16
2016-06-14T07:52:19.604Z,24.69
2016-06-14T07:53:38.844Z,25.52
2016-06-14T07:54:21.079Z,26.08
2016-06-14T07:55:19.691Z,26.59
2016-06-14T07:56:19.819Z,26.83
2016-06-14T07:57:32.498Z,27.04
2016-06-14T07:58:22.828Z,27.08
2016-06-14T07:59:39.003Z,27.34
2016-06-14T08:00:39.226Z,27.28
2016-06-14T08:01:19.882Z,27.23
2016-06-14T08:02:51.185Z,27.08
2016-06-14T08:03:51.203Z,26.86
2016-06-14T08:05:19.956Z,26.59
2016-06-14T08:06:32.743Z,26.44
2016-06-14T08:07:23.075Z,26.36
2016-06-14T08:08:23.093Z,26.19
2016-06-14T08:09:32.846Z,25.95
2016-06-14T08:10:19.956Z,25.91
2016-06-14T08:11:39.353Z,25.73
2016-06-14T08:12:20.181Z,25.66
2016-06-14T08:13:47.327Z,25.67
2016-06-14T08:14:31.314Z,25.71
2016-06-14T08:15:31.334Z,25.78
2016-06-14T08:16:43.945Z,26.06
2016-06-14T08:17:39.058Z,26.16
2016-06-14T08:18:31.546Z,26.24
2016-06-14T08:19:50.768Z,26.33
2016-06-14T08:20:44.240Z,26.36
2016-06-14T08:21:31.618Z,26.49
2016-06-14T08:22:31.589Z,26.49
2016-06-14T08:24:31.628Z,26.41
2016-06-14T08:25:31.645Z,26.24
2016-06-14T08:26:33.086Z,26.26
2016-06-14T08:27:33.042Z,26.19
2016-06-14T08:28:44.468Z,26.31
2016-06-14T08:29:31.643Z,26.26
2016-06-14T08:30:31.785Z,26.18
2016-06-14T08:31:31.821Z,26.03
2016-06-14T08:32:44.589Z,25.78
2016-06-14T08:33:44.607Z,25.67
2016-06-14T08:35:03.189Z,25.4
2016-06-14T08:35:47.129Z,25.36
2016-06-14T08:37:12.851Z,25.07
2016-06-14T08:37:47.214Z,25.06
2016-06-14T08:39:13.076Z,24.97
2016-06-14T08:39:50.298Z,25.01
2016-06-14T08:40:47.441Z,25.06
2016-06-14T08:41:47.352Z,25.11
2016-06-14T08:42:47.370Z,25.04
2016-06-14T08:43:48.841Z,24.93
2016-06-14T08:44:47.439Z,24.71
2016-06-14T08:45:47.456Z,24.78
2016-06-14T08:47:00.335Z,24.71
2016-06-14T08:48:06.713Z,24.71
2016-06-14T08:49:13.185Z,24.71
2016-06-14T08:50:13.329Z,24.53
2016-06-14T08:51:18.880Z,24.63
2016-06-14T08:52:47.666Z,25.09
2016-06-14T08:53:49.075Z,25.34
2016-06-14T08:54:47.688Z,25.36
2016-06-14T08:55:47.737Z,25.63
2016-06-14T08:56:49.194Z,25.74
2016-06-14T08:58:00.541Z,25.74
2016-06-14T08:59:00.418Z,25.91
2016-06-14T08:59:47.922Z,26.06
2016-06-14T09:01:13.566Z,25.76
2016-06-14T09:01:57.647Z,25.54
2016-06-14T09:02:57.978Z,25.56
2016-06-14T09:04:10.606Z,25.58
2016-06-14T09:05:10.781Z,25.33
2016-06-14T09:05:59.471Z,24.99
2016-06-14T09:07:23.771Z,24.46
2016-06-14T09:07:58.135Z,24.13
2016-06-14T09:09:23.763Z,23.84
2016-06-14T09:09:58.030Z,23.67
2016-06-14T09:10:58.205Z,23.54
2016-06-14T09:11:58.224Z,23.34
2016-06-14T09:12:58.384Z,23.17
2016-06-14T09:14:11.028Z,22.98
2016-06-14T09:15:11.062Z,22.63
2016-06-14T09:15:58.393Z,22.36
2016-06-14T09:17:24.099Z,22.07
2016-06-14T09:17:58.399Z,22
2016-06-14T09:18:59.871Z,21.83
2016-06-14T09:19:58.468Z,21.68
2016-06-14T09:21:11.237Z,21.48
2016-06-14T09:22:11.270Z,21.37
2016-06-14T09:22:58.571Z,21.32
2016-06-14T09:24:29.952Z,21.26
2016-06-14T09:25:00.046Z,21.28
2016-06-14T09:25:58.690Z,21.25
2016-06-14T09:27:11.224Z,21.29
2016-06-14T09:27:58.711Z,21.3
2016-06-14T09:28:58.714Z,21.4
2016-06-14T09:30:18.014Z,21.53
2016-06-14T09:31:30.255Z,21.77
2016-06-14T09:32:24.333Z,21.91
2016-06-14T09:32:58.820Z,22.04
2016-06-14T09:34:00.262Z,22.28
2016-06-14T09:34:59.107Z,22.43
2016-06-14T09:36:11.642Z,22.74
2016-06-14T09:37:02.130Z,23.08
2016-06-14T09:38:18.149Z,23.67
2016-06-14T09:39:14.855Z,23.99
2016-06-14T09:40:21.342Z,24.41
2016-06-14T09:41:02.188Z,24.61
2016-06-14T09:42:33.476Z,24.89
2016-06-14T09:43:05.367Z,25.12
2016-06-14T09:44:36.671Z,25.39
2016-06-14T09:45:15.014Z,25.51
2016-06-14T09:46:15.641Z,25.48
2016-06-14T09:47:28.147Z,25.67
2016-06-14T09:48:15.100Z,25.77
2016-06-14T09:49:15.135Z,25.8
2016-06-14T09:50:15.154Z,25.83
2016-06-14T09:51:15.109Z,26.01
2016-06-14T09:52:15.129Z,26.1
2016-06-14T09:53:15.240Z,26.19
2016-06-14T09:54:15.291Z,26.19
2016-06-14T09:55:18.341Z,26.42
2016-06-14T09:56:28.097Z,26.66
2016-06-14T09:57:34.725Z,27
2016-06-14T09:58:15.522Z,27.04
2016-06-14T09:59:15.416Z,27.08
2016-06-14T10:00:15.512Z,27.04
2016-06-14T10:01:48.176Z,27.08
2016-06-14T10:02:28.460Z,27.22
2016-06-14T10:03:15.538Z,27.29
2016-06-14T10:04:41.247Z,27.43
2016-06-14T10:05:16.997Z,27.6
2016-06-14T10:06:17.016Z,27.97
2016-06-14T10:07:26.756Z,27.98
2016-06-14T10:08:26.709Z,27.94
2016-06-14T10:09:39.465Z,28.01
2016-06-14T10:11:52.487Z,27.58
2016-06-14T10:12:26.865Z,27.55
2016-06-14T10:13:26.899Z,27.58
2016-06-14T10:14:39.637Z,27.73
2016-06-14T10:15:26.918Z,27.78
2016-06-14T10:16:46.189Z,28.06
2016-06-14T10:17:30.022Z,28.13
2016-06-14T10:18:30.212Z,28.06
2016-06-14T10:19:39.542Z,28.12
2016-06-14T10:20:30.296Z,28.12
2016-06-14T10:21:42.893Z,28.37
2016-06-14T10:22:30.349Z,28.43
2016-06-14T10:23:30.383Z,28.38
2016-06-14T10:24:43.121Z,28.47
2016-06-14T10:25:43.171Z,28.53
2016-06-14T10:26:30.439Z,28.22
2016-06-14T10:27:30.537Z,27.93
2016-06-14T10:28:33.539Z,27.63
2016-06-14T10:29:43.276Z,27.34
2016-06-14T10:30:30.420Z,27.2
2016-06-14T10:31:30.626Z,27.07
2016-06-14T10:32:43.396Z,26.96
2016-06-14T10:33:30.680Z,26.96
2016-06-14T10:34:49.979Z,26.96
2016-06-14T10:35:49.936Z,26.59
2016-06-14T10:37:02.064Z,26.46
2016-06-14T10:37:45.895Z,26.48
2016-06-14T10:38:46.117Z,26.39
2016-06-14T10:39:47.652Z,26.31
2016-06-14T10:40:46.123Z,25.98
2016-06-14T10:41:45.985Z,25.74
2016-06-14T10:43:05.269Z,25.41
2016-06-14T10:43:46.258Z,25.33
2016-06-14T10:44:46.089Z,24.78
2016-06-14T10:45:46.341Z,24.46
2016-06-14T10:46:46.345Z,24.75
2016-06-14T10:47:46.378Z,25.14
2016-06-14T10:48:46.366Z,25.52
2016-06-14T10:49:49.557Z,26.08
2016-06-14T10:50:59.154Z,26.33
2016-06-14T10:51:46.454Z,26.53
2016-06-14T10:52:46.472Z,26.88
2016-06-14T10:53:59.242Z,26.93
2016-06-14T10:54:46.588Z,27.13
2016-06-14T10:55:46.575Z,27.38
2016-06-14T10:57:05.813Z,27.37
2016-06-14T10:57:59.378Z,27.43
2016-06-14T10:59:12.178Z,27.61
2016-06-14T10:59:59.446Z,27.79
2016-06-14T11:00:46.779Z,27.72
2016-06-14T11:01:47.688Z,27.52
2016-06-14T11:02:46.785Z,27.5
2016-06-14T11:03:48.241Z,27.45
2016-06-14T11:04:46.869Z,27.5
2016-06-14T11:05:46.965Z,27.38
2016-06-14T11:06:59.640Z,27.38
2016-06-14T11:07:47.050Z,27.55
2016-06-14T11:09:06.178Z,27.48
2016-06-14T11:09:47.009Z,27.73
2016-06-14T11:10:47.043Z,27.97
2016-06-14T11:11:59.858Z,27.98
2016-06-14T11:12:47.096Z,27.68
2016-06-14T11:13:47.146Z,27.66
2016-06-14T11:14:47.228Z,27.72
2016-06-14T11:15:59.918Z,27.91
2016-06-14T11:16:47.623Z,27.98
2016-06-14T11:17:47.112Z,27.88
2016-06-14T11:18:50.302Z,27.82
2016-06-14T11:19:48.743Z,27.67
2016-06-14T11:20:47.341Z,27.53
2016-06-14T11:21:50.452Z,27.52
2016-06-14T11:23:00.128Z,27.55
2016-06-14T11:23:47.443Z,27.48
2016-06-14T11:24:47.461Z,27.37
2016-06-14T11:25:50.621Z,27.25
2016-06-14T11:26:47.546Z,27.05
2016-06-14T11:27:47.657Z,26.59
2016-06-14T11:28:47.583Z,26.36
2016-06-14T11:30:00.352Z,26.08
2016-06-14T11:30:47.652Z,25.99
2016-06-14T11:32:13.733Z,25.85
2016-06-14T11:32:50.580Z,25.83
2016-06-14T11:33:47.739Z,25.66
2016-06-14T11:34:47.789Z,25.66
2016-06-14T11:35:47.807Z,25.73
2016-06-14T11:37:00.530Z,25.81
2016-06-14T11:37:47.861Z,25.93
2016-06-14T11:38:48.021Z,25.68
2016-06-14T11:39:47.945Z,25.58
2016-06-14T11:41:00.682Z,25.61
2016-06-14T11:42:00.701Z,25.71
2016-06-14T11:42:48.017Z,25.76
2016-06-14T11:44:50.601Z,25.83
2016-06-14T11:45:03.414Z,25.86
2016-06-14T11:46:03.401Z,25.73
2016-06-14T11:47:24.310Z,25.61
2016-06-14T11:48:17.344Z,25.52
2016-06-14T11:49:34.773Z,25.39
2016-06-14T11:50:25.758Z,25.3
2016-06-14T11:52:38.017Z,24.62
2016-06-14T11:53:18.954Z,24.28
2016-06-14T11:55:21.445Z,23.66
2016-06-14T11:55:34.151Z,23.52
2016-06-14T11:56:34.153Z,23.25
2016-06-14T11:57:46.907Z,23.01
2016-06-14T11:58:41.894Z,22.83
2016-06-14T12:01:03.181Z,22.38
2016-06-14T12:02:03.294Z,22.18
2016-06-14T12:03:15.829Z,22.04
2016-06-14T12:04:04.707Z,21.85
2016-06-14T12:05:28.976Z,21.56
2016-06-14T12:06:16.228Z,21.48
2016-06-14T12:07:34.656Z,21.3
2016-06-14T12:08:34.675Z,21.11
2016-06-14T12:10:03.381Z,20.95
2016-06-14T12:11:03.150Z,20.92
2016-06-14T12:12:03.372Z,20.75
2016-06-14T12:13:03.531Z,20.68
2016-06-14T12:14:16.299Z,20.6
2016-06-14T12:15:03.772Z,20.48
2016-06-14T12:16:03.587Z,20.29
2016-06-14T12:17:16.513Z,20.24
2016-06-14T12:18:03.515Z,20.22
2016-06-14T12:19:03.690Z,20.19
2016-06-14T12:20:03.552Z,20.15
2016-06-14T12:21:06.806Z,20.14
2016-06-14T12:22:13.059Z,20.19
2016-06-14T12:23:03.827Z,20.18
2016-06-14T12:24:29.533Z,20.18
2016-06-14T12:25:13.505Z,20.18
2016-06-14T12:26:39.230Z,20.22
2016-06-14T12:27:23.308Z,20.27
2016-06-14T12:28:23.249Z,20.24
2016-06-14T12:29:36.036Z,20.29
2016-06-14T12:30:23.427Z,20.27
2016-06-14T12:31:23.289Z,20.39
2016-06-14T12:32:23.292Z,20.53
2016-06-14T12:33:23.343Z,20.6
2016-06-14T12:34:36.190Z,20.83
2016-06-14T12:35:42.633Z,21.08
2016-06-14T12:36:45.605Z,21.23
2016-06-14T12:37:45.812Z,21.47
2016-06-14T12:38:29.765Z,21.72
2016-06-14T12:39:55.536Z,22.1
2016-06-14T12:40:29.833Z,22.33
2016-06-14T12:41:29.868Z,22.67
2016-06-14T12:42:29.885Z,22.92
2016-06-14T12:43:42.498Z,23.39
2016-06-14T12:44:29.955Z,23.73
2016-06-14T12:45:55.633Z,24.18
2016-06-14T12:46:40.320Z,24.4
2016-06-14T12:47:58.701Z,24.44
2016-06-14T12:48:48.815Z,24.65
2016-06-14T12:50:57.946Z,25.22
2016-06-14T12:51:54.979Z,25.15
2016-06-14T12:53:01.248Z,24.94
2016-06-14T12:53:54.985Z,24.81
2016-06-14T12:54:54.989Z,24.74
2016-06-14T12:55:55.039Z,24.84
2016-06-14T12:56:56.464Z,24.77
2016-06-14T12:58:07.826Z,24.63
2016-06-14T12:58:55.110Z,24.58
2016-06-14T12:59:55.160Z,24.66
2016-06-14T13:00:55.194Z,24.68
2016-06-14T13:01:55.260Z,24.71
2016-06-14T13:02:56.919Z,24.77
2016-06-14T13:03:56.703Z,24.77
2016-06-14T13:05:01.566Z,24.61
2016-06-14T13:06:08.069Z,24.63
2016-06-14T13:07:14.572Z,24.62
2016-06-14T13:07:55.451Z,24.59
2016-06-14T13:09:21.094Z,24.61
2016-06-14T13:10:08.316Z,24.84
2016-06-14T13:10:55.507Z,24.89
2016-06-14T13:12:26.775Z,25.04
2016-06-14T13:13:05.169Z,25.04
2016-06-14T13:14:30.844Z,25.11
2016-06-14T13:15:21.941Z,24.92
2016-06-14T13:16:34.897Z,24.89
2016-06-14T13:17:09.603Z,24.78
2016-06-14T13:18:09.294Z,24.74
2016-06-14T13:19:10.749Z,24.88
2016-06-14T13:21:09.365Z,25.09
2016-06-14T13:22:10.806Z,25.03
2016-06-14T13:23:09.434Z,24.75
2016-06-14T13:24:09.469Z,24.68
2016-06-14T13:25:09.503Z,24.78
2016-06-14T13:26:28.725Z,24.75
2016-06-14T13:27:22.134Z,24.74
2016-06-14T13:28:40.841Z,24.4
2016-06-14T13:29:24.905Z,24.22
2016-06-14T13:30:24.924Z,24.22
2016-06-14T13:31:24.958Z,23.91
2016-06-14T13:32:25.212Z,23.99
2016-06-14T13:33:25.028Z,23.86
2016-06-14T13:34:25.124Z,23.91
2016-06-14T13:35:28.096Z,23.79
2016-06-14T13:36:28.146Z,23.56
2016-06-14T13:37:28.149Z,23.52
2016-06-14T13:38:25.230Z,23.49
2016-06-14T13:39:25.186Z,23.54
2016-06-14T13:40:39.377Z,23.52